sensor_id;sensor_type;location;lat;lon;timestamp;P1;durP1;ratioP1;P2;durP2;ratioP2
49946;SDS011;35839;48.662;13.300;2022-10-17T04:56:42;5.10;;;1.90;;
49946;SDS011;35839;48.662;13.300;2022-10-17T04:59:11;2.65;;;1.80;;
49946;SDS011;35839;48.662;13.300;2022-10-17T05:01:36;8.43;;;2.37;;
49946;SDS011;35839;48.662;13.300;2022-10-17T05:04:01;5.77;;;1.73;;
49946;SDS011;35839;48.662;13.300;2022-10-17T05:06:27;5.43;;;2.03;;
49946;SDS011;35839;48.662;13.300;2022-10-17T05:08:52;3.30;;;1.50;;
49946;SDS011;35839;48.662;13.300;2022-10-17T05:11:20;3.97;;;1.27;;
49946;SDS011;35839;48.662;13.300;2022-10-17T05:13:57;3.53;;;1.60;;
49946;SDS011;35839;48.662;13.300;2022-10-17T05:16:24;4.33;;;1.53;;
49946;SDS011;35839;48.662;13.300;2022-10-17T05:18:52;2.43;;;1.70;;
49946;SDS011;35839;48.662;13.300;2022-10-17T05:21:19;1.43;;;1.17;;
49946;SDS011;35839;48.662;13.300;2022-10-17T05:23:45;5.23;;;1.83;;
49946;SDS011;35839;48.662;13.300;2022-10-17T05:26:11;2.93;;;2.10;;
49946;SDS011;35839;48.662;13.300;2022-10-17T05:28:36;1.33;;;1.00;;
49946;SDS011;35839;48.662;13.300;2022-10-17T05:31:06;4.40;;;1.70;;
49946;SDS011;35839;48.662;13.300;2022-10-17T05:33:32;4.73;;;2.00;;
49946;SDS011;35839;48.662;13.300;2022-10-17T05:35:58;2.10;;;1.53;;
49946;SDS011;35839;48.662;13.300;2022-10-17T05:38:24;2.07;;;1.57;;
49946;SDS011;35839;48.662;13.300;2022-10-17T05:40:50;4.70;;;2.63;;
49946;SDS011;35839;48.662;13.300;2022-10-17T05:43:15;5.67;;;2.97;;
49946;SDS011;35839;48.662;13.300;2022-10-17T05:45:40;9.50;;;5.60;;
49946;SDS011;35839;48.662;13.300;2022-10-17T05:48:06;13.50;;;4.83;;
49946;SDS011;35839;48.662;13.300;2022-10-17T05:50:33;6.47;;;3.73;;
49946;SDS011;35839;48.662;13.300;2022-10-17T05:52:59;2.97;;;2.00;;
49946;SDS011;35839;48.662;13.300;2022-10-17T05:55:24;4.57;;;2.33;;
49946;SDS011;35839;48.662;13.300;2022-10-17T05:57:49;8.23;;;2.33;;
49946;SDS011;35839;48.662;13.300;2022-10-17T06:00:16;3.57;;;1.67;;
49946;SDS011;35839;48.662;13.300;2022-10-17T06:02:42;3.23;;;1.90;;
49946;SDS011;35839;48.662;13.300;2022-10-17T06:05:10;4.93;;;1.70;;
49946;SDS011;35839;48.662;13.300;2022-10-17T06:07:35;3.30;;;2.00;;
49946;SDS011;35839;48.662;13.300;2022-10-17T06:10:01;4.47;;;1.90;;
49946;SDS011;35839;48.662;13.300;2022-10-17T06:12:27;3.93;;;1.83;;
49946;SDS011;35839;48.662;13.300;2022-10-17T06:14:52;4.80;;;1.77;;
49946;SDS011;35839;48.662;13.300;2022-10-17T06:17:18;5.97;;;2.50;;
49946;SDS011;35839;48.662;13.300;2022-10-17T06:19:43;2.67;;;1.60;;
49946;SDS011;35839;48.662;13.300;2022-10-17T06:22:08;2.17;;;1.80;;
49946;SDS011;35839;48.662;13.300;2022-10-17T06:24:34;7.90;;;3.23;;
49946;SDS011;35839;48.662;13.300;2022-10-17T06:26:59;10.03;;;3.17;;
49946;SDS011;35839;48.662;13.300;2022-10-17T06:29:25;6.10;;;2.90;;
49946;SDS011;35839;48.662;13.300;2022-10-17T06:31:50;4.57;;;3.10;;
49946;SDS011;35839;48.662;13.300;2022-10-17T06:34:15;4.93;;;2.77;;
49946;SDS011;35839;48.662;13.300;2022-10-17T06:36:41;3.17;;;2.17;;
49946;SDS011;35839;48.662;13.300;2022-10-17T06:39:06;3.53;;;2.73;;
49946;SDS011;35839;48.662;13.300;2022-10-17T06:41:32;4.63;;;1.73;;
49946;SDS011;35839;48.662;13.300;2022-10-17T06:43:57;5.67;;;2.03;;
49946;SDS011;35839;48.662;13.300;2022-10-17T06:46:22;4.83;;;2.10;;
49946;SDS011;35839;48.662;13.300;2022-10-17T06:48:50;3.30;;;2.50;;
49946;SDS011;35839;48.662;13.300;2022-10-17T06:51:16;3.93;;;2.03;;
49946;SDS011;35839;48.662;13.300;2022-10-17T06:53:42;4.10;;;2.13;;
49946;SDS011;35839;48.662;13.300;2022-10-17T06:56:07;4.70;;;2.13;;
49946;SDS011;35839;48.662;13.300;2022-10-17T06:58:34;5.00;;;2.60;;
49946;SDS011;35839;48.662;13.300;2022-10-17T07:01:10;2.97;;;2.05;;
49946;SDS011;35839;48.662;13.300;2022-10-17T07:03:37;3.27;;;1.97;;
49946;SDS011;35839;48.662;13.300;2022-10-17T07:06:03;7.97;;;2.30;;
49946;SDS011;35839;48.662;13.300;2022-10-17T07:08:29;4.43;;;1.90;;
49946;SDS011;35839;48.662;13.300;2022-10-17T07:10:54;2.57;;;2.20;;
49946;SDS011;35839;48.662;13.300;2022-10-17T07:13:20;7.25;;;2.15;;
49946;SDS011;35839;48.662;13.300;2022-10-17T07:15:46;2.73;;;1.97;;
49946;SDS011;35839;48.662;13.300;2022-10-17T07:18:11;4.72;;;2.75;;
49946;SDS011;35839;48.662;13.300;2022-10-17T07:20:37;4.47;;;1.98;;
49946;SDS011;35839;48.662;13.300;2022-10-17T07:23:02;3.17;;;2.33;;
49946;SDS011;35839;48.662;13.300;2022-10-17T07:25:28;5.80;;;2.40;;
49946;SDS011;35839;48.662;13.300;2022-10-17T07:27:54;3.78;;;2.92;;
49946;SDS011;35839;48.662;13.300;2022-10-17T07:30:20;5.82;;;2.78;;
49946;SDS011;35839;48.662;13.300;2022-10-17T07:32:46;6.30;;;2.58;;
49946;SDS011;35839;48.662;13.300;2022-10-17T07:35:12;6.85;;;3.25;;
49946;SDS011;35839;48.662;13.300;2022-10-17T07:37:38;4.35;;;3.15;;
49946;SDS011;35839;48.662;13.300;2022-10-17T07:40:05;7.07;;;3.22;;
49946;SDS011;35839;48.662;13.300;2022-10-17T07:42:32;6.07;;;3.08;;
49946;SDS011;35839;48.662;13.300;2022-10-17T07:45:00;7.57;;;2.72;;
49946;SDS011;35839;48.662;13.300;2022-10-17T07:47:25;3.40;;;2.42;;
49946;SDS011;35839;48.662;13.300;2022-10-17T07:49:50;2.88;;;1.95;;
49946;SDS011;35839;48.662;13.300;2022-10-17T07:52:16;3.28;;;2.30;;
49946;SDS011;35839;48.662;13.300;2022-10-17T07:54:41;4.15;;;2.00;;
49946;SDS011;35839;48.662;13.300;2022-10-17T07:57:07;5.18;;;2.45;;
49946;SDS011;35839;48.662;13.300;2022-10-17T07:59:33;3.65;;;2.28;;
49946;SDS011;35839;48.662;13.300;2022-10-17T08:01:59;3.20;;;2.72;;
49946;SDS011;35839;48.662;13.300;2022-10-17T08:04:25;5.40;;;3.92;;
49946;SDS011;35839;48.662;13.300;2022-10-17T08:06:51;5.78;;;3.45;;
49946;SDS011;35839;48.662;13.300;2022-10-17T08:09:17;8.23;;;4.18;;
49946;SDS011;35839;48.662;13.300;2022-10-17T08:11:43;4.50;;;3.60;;
49946;SDS011;35839;48.662;13.300;2022-10-17T08:14:10;8.55;;;4.53;;
49946;SDS011;35839;48.662;13.300;2022-10-17T08:16:36;5.00;;;3.85;;
49946;SDS011;35839;48.662;13.300;2022-10-17T08:19:02;5.57;;;3.63;;
49946;SDS011;35839;48.662;13.300;2022-10-17T08:21:28;8.98;;;5.28;;
49946;SDS011;35839;48.662;13.300;2022-10-17T08:23:53;8.60;;;5.38;;
49946;SDS011;35839;48.662;13.300;2022-10-17T08:26:19;7.32;;;6.20;;
49946;SDS011;35839;48.662;13.300;2022-10-17T08:28:45;7.93;;;5.93;;
49946;SDS011;35839;48.662;13.300;2022-10-17T08:31:12;10.27;;;6.07;;
49946;SDS011;35839;48.662;13.300;2022-10-17T08:33:40;7.93;;;6.03;;
49946;SDS011;35839;48.662;13.300;2022-10-17T08:36:06;9.48;;;6.43;;
49946;SDS011;35839;48.662;13.300;2022-10-17T08:38:33;9.13;;;6.93;;
49946;SDS011;35839;48.662;13.300;2022-10-17T08:41:00;9.20;;;6.50;;
49946;SDS011;35839;48.662;13.300;2022-10-17T08:43:50;10.98;;;6.50;;
49946;SDS011;35839;48.662;13.300;2022-10-17T08:46:34;8.32;;;6.40;;
49946;SDS011;35839;48.662;13.300;2022-10-17T08:49:02;8.63;;;6.18;;
49946;SDS011;35839;48.662;13.300;2022-10-17T08:51:31;9.73;;;6.80;;
49946;SDS011;35839;48.662;13.300;2022-10-17T08:54:08;7.57;;;5.93;;
49946;SDS011;35839;48.662;13.300;2022-10-17T08:56:43;9.73;;;6.50;;
49946;SDS011;35839;48.662;13.300;2022-10-17T08:59:13;11.75;;;5.88;;
49946;SDS011;35839;48.662;13.300;2022-10-17T09:01:59;9.27;;;6.75;;
49946;SDS011;35839;48.662;13.300;2022-10-17T09:07:08;10.30;;;7.25;;
49946;SDS011;35839;48.662;13.300;2022-10-17T09:09:43;8.73;;;6.35;;
49946;SDS011;35839;48.662;13.300;2022-10-17T09:13:18;9.88;;;6.53;;
49946;SDS011;35839;48.662;13.300;2022-10-17T09:18:27;7.60;;;5.30;;
49946;SDS011;35839;48.662;13.300;2022-10-17T09:20:59;9.55;;;5.18;;
49946;SDS011;35839;48.662;13.300;2022-10-17T09:23:42;8.70;;;3.97;;
49946;SDS011;35839;48.662;13.300;2022-10-17T09:26:11;6.60;;;4.28;;
49946;SDS011;35839;48.662;13.300;2022-10-17T09:28:38;11.02;;;4.45;;
49946;SDS011;35839;48.662;13.300;2022-10-17T09:31:48;5.80;;;4.07;;
49946;SDS011;35839;48.662;13.300;2022-10-17T09:33:56;4.90;;;3.25;;
49946;SDS011;35839;48.662;13.300;2022-10-17T09:36:32;9.60;;;4.22;;
49946;SDS011;35839;48.662;13.300;2022-10-17T09:39:00;7.35;;;3.78;;
49946;SDS011;35839;48.662;13.300;2022-10-17T09:41:35;6.68;;;4.55;;
49946;SDS011;35839;48.662;13.300;2022-10-17T09:44:17;6.95;;;3.80;;
49946;SDS011;35839;48.662;13.300;2022-10-17T09:46:51;5.70;;;4.05;;
49946;SDS011;35839;48.662;13.300;2022-10-17T09:49:17;5.07;;;3.90;;
49946;SDS011;35839;48.662;13.300;2022-10-17T09:51:49;8.00;;;4.63;;
49946;SDS011;35839;48.662;13.300;2022-10-17T09:54:23;6.07;;;5.10;;
49946;SDS011;35839;48.662;13.300;2022-10-17T09:57:00;6.57;;;4.38;;
49946;SDS011;35839;48.662;13.300;2022-10-17T09:59:40;7.32;;;5.40;;
49946;SDS011;35839;48.662;13.300;2022-10-17T10:02:19;11.35;;;5.90;;
49946;SDS011;35839;48.662;13.300;2022-10-17T10:05:08;9.07;;;6.00;;
49946;SDS011;35839;48.662;13.300;2022-10-17T10:07:43;7.22;;;4.63;;
49946;SDS011;35839;48.662;13.300;2022-10-17T10:10:25;9.52;;;5.60;;
49946;SDS011;35839;48.662;13.300;2022-10-17T10:15:47;9.05;;;5.82;;
49946;SDS011;35839;48.662;13.300;2022-10-17T10:21:03;10.35;;;6.78;;
49946;SDS011;35839;48.662;13.300;2022-10-17T10:23:32;10.20;;;7.07;;
49946;SDS011;35839;48.662;13.300;2022-10-17T10:25:58;12.98;;;7.75;;
49946;SDS011;35839;48.662;13.300;2022-10-17T10:28:28;14.63;;;9.50;;
49946;SDS011;35839;48.662;13.300;2022-10-17T10:30:56;18.17;;;11.02;;
49946;SDS011;35839;48.662;13.300;2022-10-17T10:33:26;14.25;;;11.40;;
49946;SDS011;35839;48.662;13.300;2022-10-17T10:35:57;17.08;;;11.73;;
49946;SDS011;35839;48.662;13.300;2022-10-17T10:38:28;15.25;;;11.50;;
49946;SDS011;35839;48.662;13.300;2022-10-17T10:41:03;17.15;;;11.27;;
49946;SDS011;35839;48.662;13.300;2022-10-17T10:46:15;19.42;;;12.88;;
49946;SDS011;35839;48.662;13.300;2022-10-17T10:48:58;24.05;;;13.88;;
49946;SDS011;35839;48.662;13.300;2022-10-17T10:51:30;21.55;;;14.10;;
49946;SDS011;35839;48.662;13.300;2022-10-17T10:56:28;25.40;;;17.95;;
49946;SDS011;35839;48.662;13.300;2022-10-17T10:59:08;27.25;;;17.77;;
49946;SDS011;35839;48.662;13.300;2022-10-17T11:01:44;23.90;;;16.35;;
49946;SDS011;35839;48.662;13.300;2022-10-17T11:04:18;25.08;;;17.65;;
49946;SDS011;35839;48.662;13.300;2022-10-17T11:06:59;23.27;;;17.00;;
49946;SDS011;35839;48.662;13.300;2022-10-17T11:12:23;21.45;;;15.77;;
49946;SDS011;35839;48.662;13.300;2022-10-17T11:14:56;23.05;;;16.98;;
49946;SDS011;35839;48.662;13.300;2022-10-17T11:23:12;24.13;;;16.58;;
49946;SDS011;35839;48.662;13.300;2022-10-17T11:25:44;20.02;;;13.73;;
49946;SDS011;35839;48.662;13.300;2022-10-17T11:28:12;20.45;;;15.20;;
49946;SDS011;35839;48.662;13.300;2022-10-17T11:30:55;21.23;;;16.27;;
49946;SDS011;35839;48.662;13.300;2022-10-17T11:33:34;21.52;;;16.02;;
49946;SDS011;35839;48.662;13.300;2022-10-17T11:36:20;20.58;;;15.85;;
49946;SDS011;35839;48.662;13.300;2022-10-17T11:38:55;24.67;;;16.98;;
49946;SDS011;35839;48.662;13.300;2022-10-17T11:41:30;20.25;;;15.70;;
49946;SDS011;35839;48.662;13.300;2022-10-17T11:44:19;18.77;;;13.73;;
49946;SDS011;35839;48.662;13.300;2022-10-17T11:46:51;21.30;;;14.10;;
49946;SDS011;35839;48.662;13.300;2022-10-17T11:49:23;19.63;;;13.77;;
49946;SDS011;35839;48.662;13.300;2022-10-17T11:51:54;16.27;;;12.82;;
49946;SDS011;35839;48.662;13.300;2022-10-17T11:54:37;21.33;;;12.20;;
49946;SDS011;35839;48.662;13.300;2022-10-17T12:05:47;19.05;;;12.27;;
49946;SDS011;35839;48.662;13.300;2022-10-17T12:08:35;15.52;;;11.73;;
49946;SDS011;35839;48.662;13.300;2022-10-17T12:13:51;16.48;;;12.65;;
49946;SDS011;35839;48.662;13.300;2022-10-17T12:18:47;19.92;;;13.05;;
49946;SDS011;35839;48.662;13.300;2022-10-17T12:21:16;18.80;;;12.20;;
49946;SDS011;35839;48.662;13.300;2022-10-17T12:23:49;16.83;;;12.45;;
49946;SDS011;35839;48.662;13.300;2022-10-17T12:26:24;16.63;;;12.40;;
49946;SDS011;35839;48.662;13.300;2022-10-17T12:28:50;22.20;;;13.52;;
49946;SDS011;35839;48.662;13.300;2022-10-17T12:33:48;18.10;;;12.13;;
49946;SDS011;35839;48.662;13.300;2022-10-17T12:38:41;15.18;;;12.30;;
49946;SDS011;35839;48.662;13.300;2022-10-17T12:41:11;16.83;;;12.82;;
49946;SDS011;35839;48.662;13.300;2022-10-17T12:43:46;16.58;;;12.07;;
49946;SDS011;35839;48.662;13.300;2022-10-17T12:55:10;16.83;;;11.43;;
49946;SDS011;35839;48.662;13.300;2022-10-17T13:00:21;44.85;;;15.35;;
49946;SDS011;35839;48.662;13.300;2022-10-17T13:02:52;21.13;;;12.27;;
49946;SDS011;35839;48.662;13.300;2022-10-17T13:05:24;16.35;;;12.57;;
49946;SDS011;35839;48.662;13.300;2022-10-17T13:08:15;372.98;;;39.10;;
49946;SDS011;35839;48.662;13.300;2022-10-17T13:10:44;19.27;;;12.07;;
49946;SDS011;35839;48.662;13.300;2022-10-17T13:15:46;23.20;;;14.13;;
49946;SDS011;35839;48.662;13.300;2022-10-17T13:18:22;37.10;;;15.18;;
49946;SDS011;35839;48.662;13.300;2022-10-17T13:21:31;18.35;;;13.65;;
49946;SDS011;35839;48.662;13.300;2022-10-17T13:23:40;17.48;;;11.27;;
49946;SDS011;35839;48.662;13.300;2022-10-17T13:26:13;28.48;;;13.32;;
49946;SDS011;35839;48.662;13.300;2022-10-17T13:34:24;34.95;;;14.95;;
49946;SDS011;35839;48.662;13.300;2022-10-17T13:36:57;27.98;;;16.90;;
49946;SDS011;35839;48.662;13.300;2022-10-17T13:39:26;38.20;;;24.48;;
49946;SDS011;35839;48.662;13.300;2022-10-17T13:41:55;17.27;;;13.05;;
49946;SDS011;35839;48.662;13.300;2022-10-17T13:44:26;26.10;;;16.83;;
49946;SDS011;35839;48.662;13.300;2022-10-17T13:46:56;36.05;;;19.85;;
49946;SDS011;35839;48.662;13.300;2022-10-17T13:49:40;59.78;;;28.45;;
49946;SDS011;35839;48.662;13.300;2022-10-17T13:52:13;24.77;;;15.80;;
49946;SDS011;35839;48.662;13.300;2022-10-17T13:54:44;27.50;;;13.85;;
49946;SDS011;35839;48.662;13.300;2022-10-17T13:57:18;19.63;;;13.20;;
49946;SDS011;35839;48.662;13.300;2022-10-17T13:59:46;19.02;;;13.55;;
49946;SDS011;35839;48.662;13.300;2022-10-17T14:02:16;16.60;;;12.73;;
49946;SDS011;35839;48.662;13.300;2022-10-17T14:12:57;16.35;;;11.85;;
49946;SDS011;35839;48.662;13.300;2022-10-17T14:15:28;19.90;;;11.98;;
49946;SDS011;35839;48.662;13.300;2022-10-17T14:17:56;13.98;;;11.00;;
49946;SDS011;35839;48.662;13.300;2022-10-17T14:20:24;13.10;;;11.40;;
49946;SDS011;35839;48.662;13.300;2022-10-17T14:22:52;14.30;;;11.70;;
49946;SDS011;35839;48.662;13.300;2022-10-17T14:25:30;18.90;;;12.95;;
49946;SDS011;35839;48.662;13.300;2022-10-17T14:28:17;15.00;;;11.13;;
49946;SDS011;35839;48.662;13.300;2022-10-17T14:30:47;25.15;;;14.13;;
49946;SDS011;35839;48.662;13.300;2022-10-17T14:33:21;16.52;;;12.90;;
49946;SDS011;35839;48.662;13.300;2022-10-17T14:35:50;21.45;;;13.27;;
49946;SDS011;35839;48.662;13.300;2022-10-17T14:38:18;14.30;;;12.40;;
49946;SDS011;35839;48.662;13.300;2022-10-17T14:40:48;18.85;;;14.32;;
49946;SDS011;35839;48.662;13.300;2022-10-17T14:43:18;18.40;;;13.90;;
49946;SDS011;35839;48.662;13.300;2022-10-17T14:45:46;17.77;;;12.43;;
49946;SDS011;35839;48.662;13.300;2022-10-17T14:48:16;18.90;;;13.60;;
49946;SDS011;35839;48.662;13.300;2022-10-17T14:53:40;15.20;;;11.93;;
49946;SDS011;35839;48.662;13.300;2022-10-17T14:56:22;16.33;;;13.05;;
49946;SDS011;35839;48.662;13.300;2022-10-17T14:58:48;18.42;;;13.80;;
49946;SDS011;35839;48.662;13.300;2022-10-17T15:01:14;18.40;;;12.63;;
49946;SDS011;35839;48.662;13.300;2022-10-17T15:03:39;18.38;;;13.23;;
49946;SDS011;35839;48.662;13.300;2022-10-17T15:06:15;21.45;;;12.43;;
49946;SDS011;35839;48.662;13.300;2022-10-17T15:08:43;15.35;;;11.77;;
49946;SDS011;35839;48.662;13.300;2022-10-17T15:11:10;19.73;;;13.60;;
49946;SDS011;35839;48.662;13.300;2022-10-17T15:13:35;15.10;;;12.68;;
49946;SDS011;35839;48.662;13.300;2022-10-17T15:16:00;20.30;;;13.18;;
49946;SDS011;35839;48.662;13.300;2022-10-17T15:18:26;16.67;;;14.27;;
49946;SDS011;35839;48.662;13.300;2022-10-17T15:20:51;15.43;;;13.15;;
49946;SDS011;35839;48.662;13.300;2022-10-17T15:23:16;21.30;;;14.23;;
49946;SDS011;35839;48.662;13.300;2022-10-17T15:25:41;16.42;;;14.25;;
49946;SDS011;35839;48.662;13.300;2022-10-17T15:28:07;16.75;;;13.93;;
49946;SDS011;35839;48.662;13.300;2022-10-17T15:30:36;16.75;;;14.70;;
49946;SDS011;35839;48.662;13.300;2022-10-17T15:33:02;17.73;;;14.50;;
49946;SDS011;35839;48.662;13.300;2022-10-17T15:35:27;19.42;;;14.88;;
49946;SDS011;35839;48.662;13.300;2022-10-17T15:37:53;15.60;;;13.73;;
49946;SDS011;35839;48.662;13.300;2022-10-17T15:42:53;17.20;;;13.43;;
49946;SDS011;35839;48.662;13.300;2022-10-17T15:45:20;18.00;;;14.73;;
49946;SDS011;35839;48.662;13.300;2022-10-17T15:47:49;32.08;;;15.13;;
49946;SDS011;35839;48.662;13.300;2022-10-17T15:50:16;56.63;;;17.05;;
49946;SDS011;35839;48.662;13.300;2022-10-17T15:52:42;66.63;;;19.75;;
49946;SDS011;35839;48.662;13.300;2022-10-17T15:55:09;18.65;;;15.85;;
49946;SDS011;35839;48.662;13.300;2022-10-17T15:57:35;21.95;;;16.17;;
49946;SDS011;35839;48.662;13.300;2022-10-17T16:00:04;23.67;;;18.67;;
49946;SDS011;35839;48.662;13.300;2022-10-17T16:02:39;47.05;;;34.47;;
49946;SDS011;35839;48.662;13.300;2022-10-17T16:05:08;30.55;;;20.27;;
49946;SDS011;35839;48.662;13.300;2022-10-17T16:07:40;21.52;;;16.17;;
49946;SDS011;35839;48.662;13.300;2022-10-17T16:10:06;22.50;;;16.35;;
49946;SDS011;35839;48.662;13.300;2022-10-17T16:12:33;22.17;;;15.85;;
49946;SDS011;35839;48.662;13.300;2022-10-17T16:15:05;25.60;;;15.60;;
49946;SDS011;35839;48.662;13.300;2022-10-17T16:17:32;61.03;;;37.58;;
49946;SDS011;35839;48.662;13.300;2022-10-17T16:19:57;47.60;;;32.25;;
49946;SDS011;35839;48.662;13.300;2022-10-17T16:22:27;27.27;;;16.17;;
49946;SDS011;35839;48.662;13.300;2022-10-17T16:25:00;23.87;;;15.33;;
49946;SDS011;35839;48.662;13.300;2022-10-17T16:27:31;25.88;;;17.05;;
49946;SDS011;35839;48.662;13.300;2022-10-17T16:29:57;27.55;;;17.88;;
49946;SDS011;35839;48.662;13.300;2022-10-17T16:32:22;26.27;;;18.48;;
49946;SDS011;35839;48.662;13.300;2022-10-17T16:34:48;31.25;;;16.65;;
49946;SDS011;35839;48.662;13.300;2022-10-17T16:37:13;23.42;;;17.38;;
49946;SDS011;35839;48.662;13.300;2022-10-17T16:39:38;29.33;;;20.80;;
49946;SDS011;35839;48.662;13.300;2022-10-17T16:42:03;23.27;;;17.63;;
49946;SDS011;35839;48.662;13.300;2022-10-17T16:44:29;25.05;;;18.25;;
49946;SDS011;35839;48.662;13.300;2022-10-17T16:46:54;28.88;;;16.73;;
49946;SDS011;35839;48.662;13.300;2022-10-17T16:49:19;20.50;;;15.57;;
49946;SDS011;35839;48.662;13.300;2022-10-17T16:51:45;25.60;;;18.17;;
49946;SDS011;35839;48.662;13.300;2022-10-17T16:54:10;25.88;;;18.90;;
49946;SDS011;35839;48.662;13.300;2022-10-17T16:56:35;28.98;;;17.85;;
49946;SDS011;35839;48.662;13.300;2022-10-17T16:59:01;27.35;;;16.85;;
49946;SDS011;35839;48.662;13.300;2022-10-17T17:01:27;26.63;;;17.38;;
49946;SDS011;35839;48.662;13.300;2022-10-17T17:03:53;30.70;;;16.92;;
49946;SDS011;35839;48.662;13.300;2022-10-17T17:06:20;23.58;;;16.60;;
49946;SDS011;35839;48.662;13.300;2022-10-17T17:08:48;24.23;;;17.92;;
49946;SDS011;35839;48.662;13.300;2022-10-17T17:11:14;34.10;;;19.88;;
49946;SDS011;35839;48.662;13.300;2022-10-17T17:13:41;26.80;;;21.20;;
49946;SDS011;35839;48.662;13.300;2022-10-17T17:16:08;24.35;;;19.45;;
49946;SDS011;35839;48.662;13.300;2022-10-17T17:18:38;28.42;;;17.38;;
49946;SDS011;35839;48.662;13.300;2022-10-17T17:21:04;30.08;;;18.08;;
49946;SDS011;35839;48.662;13.300;2022-10-17T17:23:32;26.02;;;18.05;;
49946;SDS011;35839;48.662;13.300;2022-10-17T17:26:00;27.70;;;18.10;;
49946;SDS011;35839;48.662;13.300;2022-10-17T17:28:31;21.23;;;16.02;;
49946;SDS011;35839;48.662;13.300;2022-10-17T17:30:57;26.58;;;18.25;;
49946;SDS011;35839;48.662;13.300;2022-10-17T17:33:23;25.52;;;17.58;;
49946;SDS011;35839;48.662;13.300;2022-10-17T17:35:59;22.63;;;15.85;;
49946;SDS011;35839;48.662;13.300;2022-10-17T17:38:29;27.42;;;15.43;;
49946;SDS011;35839;48.662;13.300;2022-10-17T17:40:55;24.15;;;17.83;;
49946;SDS011;35839;48.662;13.300;2022-10-17T17:43:21;26.85;;;18.98;;
49946;SDS011;35839;48.662;13.300;2022-10-17T17:45:47;33.97;;;19.65;;
49946;SDS011;35839;48.662;13.300;2022-10-17T17:48:12;30.73;;;20.02;;
49946;SDS011;35839;48.662;13.300;2022-10-17T17:50:38;24.65;;;18.42;;
49946;SDS011;35839;48.662;13.300;2022-10-17T17:53:05;27.50;;;18.75;;
49946;SDS011;35839;48.662;13.300;2022-10-17T17:55:32;30.08;;;18.95;;
49946;SDS011;35839;48.662;13.300;2022-10-17T17:57:58;30.63;;;18.38;;
49946;SDS011;35839;48.662;13.300;2022-10-17T18:00:23;42.28;;;18.63;;
49946;SDS011;35839;48.662;13.300;2022-10-17T18:02:49;30.02;;;18.40;;
49946;SDS011;35839;48.662;13.300;2022-10-17T18:05:14;27.73;;;17.95;;
49946;SDS011;35839;48.662;13.300;2022-10-17T18:07:40;33.85;;;18.38;;
49946;SDS011;35839;48.662;13.300;2022-10-17T18:10:05;37.17;;;20.75;;
49946;SDS011;35839;48.662;13.300;2022-10-17T18:12:31;30.35;;;18.52;;
49946;SDS011;35839;48.662;13.300;2022-10-17T18:14:58;33.13;;;19.70;;
49946;SDS011;35839;48.662;13.300;2022-10-17T18:17:24;27.92;;;19.67;;
49946;SDS011;35839;48.662;13.300;2022-10-17T18:19:50;29.00;;;19.75;;
49946;SDS011;35839;48.662;13.300;2022-10-17T18:22:15;28.45;;;19.35;;
49946;SDS011;35839;48.662;13.300;2022-10-17T18:24:40;28.90;;;20.83;;
49946;SDS011;35839;48.662;13.300;2022-10-17T18:27:06;26.10;;;19.27;;
49946;SDS011;35839;48.662;13.300;2022-10-17T18:29:31;28.35;;;19.15;;
49946;SDS011;35839;48.662;13.300;2022-10-17T18:31:57;26.85;;;18.85;;
49946;SDS011;35839;48.662;13.300;2022-10-17T18:34:23;26.13;;;18.30;;
49946;SDS011;35839;48.662;13.300;2022-10-17T18:36:49;27.88;;;18.08;;
49946;SDS011;35839;48.662;13.300;2022-10-17T18:39:16;25.08;;;16.77;;
49946;SDS011;35839;48.662;13.300;2022-10-17T18:41:42;40.72;;;19.02;;
49946;SDS011;35839;48.662;13.300;2022-10-17T18:44:08;30.45;;;16.67;;
49946;SDS011;35839;48.662;13.300;2022-10-17T18:46:34;30.38;;;18.42;;
49946;SDS011;35839;48.662;13.300;2022-10-17T18:49:04;33.47;;;19.60;;
49946;SDS011;35839;48.662;13.300;2022-10-17T18:51:30;26.33;;;18.23;;
49946;SDS011;35839;48.662;13.300;2022-10-17T18:53:55;24.17;;;17.77;;
49946;SDS011;35839;48.662;13.300;2022-10-17T18:56:22;32.70;;;20.38;;
49946;SDS011;35839;48.662;13.300;2022-10-17T18:58:49;26.35;;;20.33;;
49946;SDS011;35839;48.662;13.300;2022-10-17T19:01:19;26.25;;;18.10;;
49946;SDS011;35839;48.662;13.300;2022-10-17T19:03:46;24.65;;;18.65;;
49946;SDS011;35839;48.662;13.300;2022-10-17T19:06:13;24.10;;;16.95;;
49946;SDS011;35839;48.662;13.300;2022-10-17T19:08:41;28.25;;;17.38;;
49946;SDS011;35839;48.662;13.300;2022-10-17T19:11:08;37.90;;;18.80;;
49946;SDS011;35839;48.662;13.300;2022-10-17T19:13:44;29.70;;;19.88;;
49946;SDS011;35839;48.662;13.300;2022-10-17T19:16:11;28.10;;;18.38;;
49946;SDS011;35839;48.662;13.300;2022-10-17T19:18:38;31.65;;;19.95;;
49946;SDS011;35839;48.662;13.300;2022-10-17T19:21:05;31.77;;;19.02;;
49946;SDS011;35839;48.662;13.300;2022-10-17T19:23:34;27.85;;;18.15;;
49946;SDS011;35839;48.662;13.300;2022-10-17T19:26:02;31.83;;;21.25;;
49946;SDS011;35839;48.662;13.300;2022-10-17T19:28:35;31.75;;;21.33;;
49946;SDS011;35839;48.662;13.300;2022-10-17T19:31:01;28.50;;;21.52;;
49946;SDS011;35839;48.662;13.300;2022-10-17T19:33:27;31.52;;;21.27;;
49946;SDS011;35839;48.662;13.300;2022-10-17T19:35:53;27.75;;;19.40;;
49946;SDS011;35839;48.662;13.300;2022-10-17T19:38:37;25.23;;;16.73;;
49946;SDS011;35839;48.662;13.300;2022-10-17T19:41:04;25.85;;;17.95;;
49946;SDS011;35839;48.662;13.300;2022-10-17T19:43:31;36.63;;;19.77;;
49946;SDS011;35839;48.662;13.300;2022-10-17T19:46:00;32.97;;;20.27;;
49946;SDS011;35839;48.662;13.300;2022-10-17T19:48:29;27.00;;;17.92;;
49946;SDS011;35839;48.662;13.300;2022-10-17T19:50:56;29.92;;;18.60;;
49946;SDS011;35839;48.662;13.300;2022-10-17T19:53:21;25.20;;;17.98;;
49946;SDS011;35839;48.662;13.300;2022-10-17T19:55:48;25.00;;;17.52;;
49946;SDS011;35839;48.662;13.300;2022-10-17T19:58:13;22.42;;;16.70;;
49946;SDS011;35839;48.662;13.300;2022-10-17T20:00:44;21.08;;;15.65;;
49946;SDS011;35839;48.662;13.300;2022-10-17T20:03:11;27.95;;;13.75;;
49946;SDS011;35839;48.662;13.300;2022-10-17T20:05:36;40.38;;;14.85;;
49946;SDS011;35839;48.662;13.300;2022-10-17T20:08:02;31.52;;;14.85;;
49946;SDS011;35839;48.662;13.300;2022-10-17T20:10:27;20.60;;;15.25;;
49946;SDS011;35839;48.662;13.300;2022-10-17T20:12:53;19.85;;;15.55;;
49946;SDS011;35839;48.662;13.300;2022-10-17T20:15:18;23.65;;;17.70;;
49946;SDS011;35839;48.662;13.300;2022-10-17T20:17:43;35.00;;;21.60;;
49946;SDS011;35839;48.662;13.300;2022-10-17T20:20:09;35.00;;;17.65;;
49946;SDS011;35839;48.662;13.300;2022-10-17T20:22:35;33.38;;;18.60;;
49946;SDS011;35839;48.662;13.300;2022-10-17T20:25:00;28.77;;;17.58;;
49946;SDS011;35839;48.662;13.300;2022-10-17T20:27:25;31.00;;;16.38;;
49946;SDS011;35839;48.662;13.300;2022-10-17T20:29:51;26.88;;;17.38;;
49946;SDS011;35839;48.662;13.300;2022-10-17T20:32:16;51.38;;;18.00;;
49946;SDS011;35839;48.662;13.300;2022-10-17T20:34:42;31.35;;;17.73;;
49946;SDS011;35839;48.662;13.300;2022-10-17T20:37:07;25.45;;;17.42;;
49946;SDS011;35839;48.662;13.300;2022-10-17T20:39:33;24.00;;;17.40;;
49946;SDS011;35839;48.662;13.300;2022-10-17T20:41:59;52.10;;;19.52;;